Bandera Bajada, Argentina
Current Conditions -  °F | °C
As of 6:00 AM on Thursday 23 Oct 2014 (Local Time) from SANT Reporting Station
Clear Clear  
Wind Chill: 73°   Ceiling: Unl
Heat Index: 73°   Visibility: 6mi
Dew Point: 61°   Wind: 7mph
Humidity: 65%   Direction: 360°N
Pressure: 29.94"   Gusts: NA
Location:  26.82°S, 63.47°W
Report Text: SANT 230900Z 36006KT CAVOK 23/16 Q1014
Loading
Personal Weather Stations






























Interactive Weather Map
Tropical Storm Tracking
New forecast layout! Learn more

10-Day Weather Forecast

Advertisements
Track Severe Weather on mobile